sensor_id;sensor_type;location;lat;lon;timestamp;P1;durP1;ratioP1;P2;durP2;ratioP2
69527;SDS011;57136;51.986;4.468;2022-12-24T00:00:13;36.28;;;5.30;;
69527;SDS011;57136;51.986;4.468;2022-12-24T00:02:39;33.20;;;6.50;;
69527;SDS011;57136;51.986;4.468;2022-12-24T00:05:04;38.55;;;5.10;;
69527;SDS011;57136;51.986;4.468;2022-12-24T00:07:30;34.97;;;6.78;;
69527;SDS011;57136;51.986;4.468;2022-12-24T00:09:55;45.58;;;6.82;;
69527;SDS011;57136;51.986;4.468;2022-12-24T00:12:21;29.55;;;3.70;;
69527;SDS011;57136;51.986;4.468;2022-12-24T00:14:46;25.90;;;4.07;;
69527;SDS011;57136;51.986;4.468;2022-12-24T00:17:12;34.33;;;4.55;;
69527;SDS011;57136;51.986;4.468;2022-12-24T00:19:37;34.45;;;4.50;;
69527;SDS011;57136;51.986;4.468;2022-12-24T00:22:02;37.65;;;4.85;;
69527;SDS011;57136;51.986;4.468;2022-12-24T00:24:28;29.67;;;4.30;;
69527;SDS011;57136;51.986;4.468;2022-12-24T00:26:53;36.08;;;5.25;;
69527;SDS011;57136;51.986;4.468;2022-12-24T00:29:18;33.42;;;4.85;;
69527;SDS011;57136;51.986;4.468;2022-12-24T00:31:43;37.63;;;6.07;;
69527;SDS011;57136;51.986;4.468;2022-12-24T00:34:09;28.98;;;4.63;;
69527;SDS011;57136;51.986;4.468;2022-12-24T00:36:34;24.95;;;4.38;;
69527;SDS011;57136;51.986;4.468;2022-12-24T00:38:59;27.80;;;3.40;;
69527;SDS011;57136;51.986;4.468;2022-12-24T00:41:25;30.92;;;5.35;;
69527;SDS011;57136;51.986;4.468;2022-12-24T00:46:30;28.40;;;4.13;;
69527;SDS011;57136;51.986;4.468;2022-12-24T00:48:56;29.60;;;5.07;;
69527;SDS011;57136;51.986;4.468;2022-12-24T00:51:22;33.83;;;5.32;;
69527;SDS011;57136;51.986;4.468;2022-12-24T00:53:48;37.97;;;4.22;;
69527;SDS011;57136;51.986;4.468;2022-12-24T00:56:14;25.88;;;4.30;;
69527;SDS011;57136;51.986;4.468;2022-12-24T00:58:40;29.05;;;4.07;;
69527;SDS011;57136;51.986;4.468;2022-12-24T01:01:05;22.88;;;4.22;;
69527;SDS011;57136;51.986;4.468;2022-12-24T01:03:31;28.67;;;4.30;;
69527;SDS011;57136;51.986;4.468;2022-12-24T01:06:10;35.67;;;5.80;;
69527;SDS011;57136;51.986;4.468;2022-12-24T01:08:40;25.55;;;4.72;;
69527;SDS011;57136;51.986;4.468;2022-12-24T01:11:06;25.73;;;3.33;;
69527;SDS011;57136;51.986;4.468;2022-12-24T01:13:33;29.90;;;4.32;;
69527;SDS011;57136;51.986;4.468;2022-12-24T01:15:59;29.92;;;4.50;;
69527;SDS011;57136;51.986;4.468;2022-12-24T01:18:25;34.00;;;4.03;;
69527;SDS011;57136;51.986;4.468;2022-12-24T01:20:57;33.30;;;4.05;;
69527;SDS011;57136;51.986;4.468;2022-12-24T01:23:24;23.70;;;4.53;;
69527;SDS011;57136;51.986;4.468;2022-12-24T01:25:50;33.67;;;5.03;;
69527;SDS011;57136;51.986;4.468;2022-12-24T01:28:18;24.27;;;4.25;;
69527;SDS011;57136;51.986;4.468;2022-12-24T01:30:44;33.33;;;3.90;;
69527;SDS011;57136;51.986;4.468;2022-12-24T01:33:10;23.67;;;2.95;;
69527;SDS011;57136;51.986;4.468;2022-12-24T01:35:39;25.60;;;3.90;;
69527;SDS011;57136;51.986;4.468;2022-12-24T01:38:05;31.38;;;4.38;;
69527;SDS011;57136;51.986;4.468;2022-12-24T01:40:31;26.02;;;3.67;;
69527;SDS011;57136;51.986;4.468;2022-12-24T01:43:15;30.35;;;3.90;;
69527;SDS011;57136;51.986;4.468;2022-12-24T01:48:34;22.77;;;3.20;;
69527;SDS011;57136;51.986;4.468;2022-12-24T01:51:05;24.50;;;3.78;;
69527;SDS011;57136;51.986;4.468;2022-12-24T01:53:39;24.90;;;3.25;;
69527;SDS011;57136;51.986;4.468;2022-12-24T01:56:08;33.17;;;3.55;;
69527;SDS011;57136;51.986;4.468;2022-12-24T01:58:35;25.15;;;3.78;;
69527;SDS011;57136;51.986;4.468;2022-12-24T02:01:03;23.00;;;3.20;;
69527;SDS011;57136;51.986;4.468;2022-12-24T02:03:29;28.73;;;3.03;;
69527;SDS011;57136;51.986;4.468;2022-12-24T02:05:55;25.50;;;3.30;;
69527;SDS011;57136;51.986;4.468;2022-12-24T02:08:23;20.05;;;3.45;;
69527;SDS011;57136;51.986;4.468;2022-12-24T02:10:48;19.52;;;3.20;;
69527;SDS011;57136;51.986;4.468;2022-12-24T02:13:15;18.70;;;2.65;;
69527;SDS011;57136;51.986;4.468;2022-12-24T02:15:52;22.92;;;3.13;;
69527;SDS011;57136;51.986;4.468;2022-12-24T02:18:31;19.02;;;3.40;;
69527;SDS011;57136;51.986;4.468;2022-12-24T02:21:13;21.55;;;3.13;;
69527;SDS011;57136;51.986;4.468;2022-12-24T02:27:07;28.05;;;3.88;;
69527;SDS011;57136;51.986;4.468;2022-12-24T02:35:19;38.35;;;4.95;;
69527;SDS011;57136;51.986;4.468;2022-12-24T02:37:58;22.15;;;3.47;;
69527;SDS011;57136;51.986;4.468;2022-12-24T02:40:28;23.83;;;3.72;;
69527;SDS011;57136;51.986;4.468;2022-12-24T02:43:02;34.85;;;4.57;;
69527;SDS011;57136;51.986;4.468;2022-12-24T02:45:33;28.13;;;3.80;;
69527;SDS011;57136;51.986;4.468;2022-12-24T02:48:00;35.50;;;4.53;;
69527;SDS011;57136;51.986;4.468;2022-12-24T02:50:26;21.65;;;4.10;;
69527;SDS011;57136;51.986;4.468;2022-12-24T02:52:52;30.17;;;4.97;;
69527;SDS011;57136;51.986;4.468;2022-12-24T02:55:27;36.10;;;5.13;;
69527;SDS011;57136;51.986;4.468;2022-12-24T02:58:34;33.33;;;4.72;;
69527;SDS011;57136;51.986;4.468;2022-12-24T03:01:20;35.83;;;4.63;;
69527;SDS011;57136;51.986;4.468;2022-12-24T03:04:11;28.25;;;3.63;;
69527;SDS011;57136;51.986;4.468;2022-12-24T03:07:09;34.22;;;4.95;;
69527;SDS011;57136;51.986;4.468;2022-12-24T03:12:18;28.02;;;3.80;;
69527;SDS011;57136;51.986;4.468;2022-12-24T03:14:47;34.50;;;4.35;;
69527;SDS011;57136;51.986;4.468;2022-12-24T03:17:14;37.40;;;4.80;;
69527;SDS011;57136;51.986;4.468;2022-12-24T03:19:39;27.98;;;4.57;;
69527;SDS011;57136;51.986;4.468;2022-12-24T03:22:07;31.85;;;4.47;;
69527;SDS011;57136;51.986;4.468;2022-12-24T03:24:35;32.53;;;3.90;;
69527;SDS011;57136;51.986;4.468;2022-12-24T03:27:01;30.58;;;4.47;;
69527;SDS011;57136;51.986;4.468;2022-12-24T03:29:29;32.95;;;4.57;;
69527;SDS011;57136;51.986;4.468;2022-12-24T03:31:58;27.85;;;4.97;;
69527;SDS011;57136;51.986;4.468;2022-12-24T03:34:25;36.22;;;5.88;;
69527;SDS011;57136;51.986;4.468;2022-12-24T03:36:50;31.27;;;4.50;;
69527;SDS011;57136;51.986;4.468;2022-12-24T03:39:16;30.60;;;4.30;;
69527;SDS011;57136;51.986;4.468;2022-12-24T03:41:41;25.75;;;3.33;;
69527;SDS011;57136;51.986;4.468;2022-12-24T03:44:06;28.10;;;4.43;;
69527;SDS011;57136;51.986;4.468;2022-12-24T03:46:32;30.60;;;4.38;;
69527;SDS011;57136;51.986;4.468;2022-12-24T03:48:57;34.17;;;4.43;;
69527;SDS011;57136;51.986;4.468;2022-12-24T03:51:23;24.92;;;4.53;;
69527;SDS011;57136;51.986;4.468;2022-12-24T03:53:53;47.15;;;4.43;;
69527;SDS011;57136;51.986;4.468;2022-12-24T03:56:21;24.77;;;3.95;;
69527;SDS011;57136;51.986;4.468;2022-12-24T03:58:47;29.50;;;3.95;;
69527;SDS011;57136;51.986;4.468;2022-12-24T04:01:12;38.53;;;4.18;;
69527;SDS011;57136;51.986;4.468;2022-12-24T04:03:38;24.73;;;3.80;;
69527;SDS011;57136;51.986;4.468;2022-12-24T04:06:04;23.70;;;3.95;;
69527;SDS011;57136;51.986;4.468;2022-12-24T04:08:32;29.75;;;3.55;;
69527;SDS011;57136;51.986;4.468;2022-12-24T04:10:57;24.17;;;3.58;;
69527;SDS011;57136;51.986;4.468;2022-12-24T04:13:23;30.70;;;3.08;;
69527;SDS011;57136;51.986;4.468;2022-12-24T04:16:04;29.08;;;5.07;;
69527;SDS011;57136;51.986;4.468;2022-12-24T04:18:31;25.67;;;3.83;;
69527;SDS011;57136;51.986;4.468;2022-12-24T04:20:57;23.50;;;3.67;;
69527;SDS011;57136;51.986;4.468;2022-12-24T04:23:23;29.92;;;4.47;;
69527;SDS011;57136;51.986;4.468;2022-12-24T04:25:49;22.83;;;3.72;;
69527;SDS011;57136;51.986;4.468;2022-12-24T04:28:14;20.92;;;3.00;;
69527;SDS011;57136;51.986;4.468;2022-12-24T04:30:40;24.63;;;4.50;;
69527;SDS011;57136;51.986;4.468;2022-12-24T04:33:06;23.33;;;4.55;;
69527;SDS011;57136;51.986;4.468;2022-12-24T04:35:32;19.60;;;3.72;;
69527;SDS011;57136;51.986;4.468;2022-12-24T04:37:57;26.38;;;4.57;;
69527;SDS011;57136;51.986;4.468;2022-12-24T04:40:24;31.23;;;5.50;;
69527;SDS011;57136;51.986;4.468;2022-12-24T04:42:49;23.02;;;3.75;;
69527;SDS011;57136;51.986;4.468;2022-12-24T04:45:18;28.85;;;3.35;;
69527;SDS011;57136;51.986;4.468;2022-12-24T04:47:43;26.20;;;5.07;;
69527;SDS011;57136;51.986;4.468;2022-12-24T04:50:09;30.42;;;4.63;;
69527;SDS011;57136;51.986;4.468;2022-12-24T04:52:35;28.23;;;5.05;;
69527;SDS011;57136;51.986;4.468;2022-12-24T04:55:00;33.17;;;4.13;;
69527;SDS011;57136;51.986;4.468;2022-12-24T04:57:26;34.63;;;5.00;;
69527;SDS011;57136;51.986;4.468;2022-12-24T04:59:52;30.10;;;4.18;;
69527;SDS011;57136;51.986;4.468;2022-12-24T05:02:17;26.95;;;3.88;;
69527;SDS011;57136;51.986;4.468;2022-12-24T05:04:42;33.42;;;5.50;;
69527;SDS011;57136;51.986;4.468;2022-12-24T05:07:08;27.92;;;4.07;;
69527;SDS011;57136;51.986;4.468;2022-12-24T05:09:33;29.08;;;4.95;;
69527;SDS011;57136;51.986;4.468;2022-12-24T05:11:59;34.58;;;4.32;;
69527;SDS011;57136;51.986;4.468;2022-12-24T05:14:25;34.28;;;4.28;;
69527;SDS011;57136;51.986;4.468;2022-12-24T05:16:50;33.40;;;4.60;;
69527;SDS011;57136;51.986;4.468;2022-12-24T05:19:15;41.53;;;5.05;;
69527;SDS011;57136;51.986;4.468;2022-12-24T05:21:41;30.23;;;4.28;;
69527;SDS011;57136;51.986;4.468;2022-12-24T05:24:06;23.10;;;4.38;;
69527;SDS011;57136;51.986;4.468;2022-12-24T05:26:52;40.67;;;4.97;;
69527;SDS011;57136;51.986;4.468;2022-12-24T05:29:19;28.33;;;4.25;;
69527;SDS011;57136;51.986;4.468;2022-12-24T05:31:45;42.35;;;5.63;;
69527;SDS011;57136;51.986;4.468;2022-12-24T05:34:11;36.75;;;5.15;;
69527;SDS011;57136;51.986;4.468;2022-12-24T05:36:38;43.28;;;5.20;;
69527;SDS011;57136;51.986;4.468;2022-12-24T05:39:05;38.80;;;4.78;;
69527;SDS011;57136;51.986;4.468;2022-12-24T05:41:30;34.40;;;4.97;;
69527;SDS011;57136;51.986;4.468;2022-12-24T05:43:56;36.95;;;4.95;;
69527;SDS011;57136;51.986;4.468;2022-12-24T05:46:22;37.63;;;4.90;;
69527;SDS011;57136;51.986;4.468;2022-12-24T05:48:49;47.42;;;6.07;;
69527;SDS011;57136;51.986;4.468;2022-12-24T05:51:16;34.90;;;4.53;;
69527;SDS011;57136;51.986;4.468;2022-12-24T05:53:44;28.75;;;4.32;;
69527;SDS011;57136;51.986;4.468;2022-12-24T05:56:14;31.15;;;5.30;;
69527;SDS011;57136;51.986;4.468;2022-12-24T05:58:42;38.75;;;5.57;;
69527;SDS011;57136;51.986;4.468;2022-12-24T06:01:08;41.00;;;5.13;;
69527;SDS011;57136;51.986;4.468;2022-12-24T06:03:34;41.60;;;5.50;;
69527;SDS011;57136;51.986;4.468;2022-12-24T06:06:04;40.30;;;5.43;;
69527;SDS011;57136;51.986;4.468;2022-12-24T06:08:32;45.10;;;5.88;;
69527;SDS011;57136;51.986;4.468;2022-12-24T06:11:00;42.33;;;5.57;;
69527;SDS011;57136;51.986;4.468;2022-12-24T06:13:27;35.95;;;6.13;;
69527;SDS011;57136;51.986;4.468;2022-12-24T06:15:53;40.30;;;5.38;;
69527;SDS011;57136;51.986;4.468;2022-12-24T06:18:23;37.80;;;5.18;;
69527;SDS011;57136;51.986;4.468;2022-12-24T06:20:49;37.38;;;5.57;;
69527;SDS011;57136;51.986;4.468;2022-12-24T06:23:16;39.38;;;6.00;;
69527;SDS011;57136;51.986;4.468;2022-12-24T06:25:41;37.17;;;6.68;;
69527;SDS011;57136;51.986;4.468;2022-12-24T06:28:06;44.92;;;6.60;;
69527;SDS011;57136;51.986;4.468;2022-12-24T06:30:32;46.20;;;6.72;;
69527;SDS011;57136;51.986;4.468;2022-12-24T06:32:57;37.70;;;5.85;;
69527;SDS011;57136;51.986;4.468;2022-12-24T06:35:22;39.08;;;8.07;;
69527;SDS011;57136;51.986;4.468;2022-12-24T06:37:47;44.85;;;6.03;;
69527;SDS011;57136;51.986;4.468;2022-12-24T06:40:13;34.78;;;5.38;;
69527;SDS011;57136;51.986;4.468;2022-12-24T06:42:38;38.20;;;6.15;;
69527;SDS011;57136;51.986;4.468;2022-12-24T06:45:04;28.95;;;5.13;;
69527;SDS011;57136;51.986;4.468;2022-12-24T06:47:29;37.28;;;5.35;;
69527;SDS011;57136;51.986;4.468;2022-12-24T06:49:55;29.35;;;4.75;;
69527;SDS011;57136;51.986;4.468;2022-12-24T06:52:20;44.65;;;5.97;;
69527;SDS011;57136;51.986;4.468;2022-12-24T06:54:45;42.03;;;4.85;;
69527;SDS011;57136;51.986;4.468;2022-12-24T06:57:11;38.45;;;6.20;;
69527;SDS011;57136;51.986;4.468;2022-12-24T06:59:36;32.67;;;5.50;;
69527;SDS011;57136;51.986;4.468;2022-12-24T07:02:01;39.88;;;5.57;;
69527;SDS011;57136;51.986;4.468;2022-12-24T07:04:27;33.90;;;6.15;;
69527;SDS011;57136;51.986;4.468;2022-12-24T07:06:52;45.03;;;6.25;;
69527;SDS011;57136;51.986;4.468;2022-12-24T07:09:17;40.83;;;5.55;;
69527;SDS011;57136;51.986;4.468;2022-12-24T07:11:43;32.20;;;6.15;;
69527;SDS011;57136;51.986;4.468;2022-12-24T07:14:08;38.60;;;7.53;;
69527;SDS011;57136;51.986;4.468;2022-12-24T07:16:34;39.67;;;7.13;;
69527;SDS011;57136;51.986;4.468;2022-12-24T07:18:59;41.70;;;6.07;;
69527;SDS011;57136;51.986;4.468;2022-12-24T07:21:25;43.25;;;6.25;;
69527;SDS011;57136;51.986;4.468;2022-12-24T07:23:50;35.17;;;4.93;;
69527;SDS011;57136;51.986;4.468;2022-12-24T07:26:15;39.97;;;6.88;;
69527;SDS011;57136;51.986;4.468;2022-12-24T07:28:41;36.17;;;5.25;;
69527;SDS011;57136;51.986;4.468;2022-12-24T07:31:06;43.40;;;5.03;;
69527;SDS011;57136;51.986;4.468;2022-12-24T07:33:31;38.05;;;4.72;;
69527;SDS011;57136;51.986;4.468;2022-12-24T07:35:57;33.10;;;5.05;;
69527;SDS011;57136;51.986;4.468;2022-12-24T07:38:23;31.40;;;4.72;;
69527;SDS011;57136;51.986;4.468;2022-12-24T07:40:48;27.35;;;5.07;;
69527;SDS011;57136;51.986;4.468;2022-12-24T07:43:13;36.25;;;5.38;;
69527;SDS011;57136;51.986;4.468;2022-12-24T07:45:39;36.15;;;5.32;;
69527;SDS011;57136;51.986;4.468;2022-12-24T07:48:04;25.38;;;4.32;;
69527;SDS011;57136;51.986;4.468;2022-12-24T07:50:29;33.38;;;3.83;;
69527;SDS011;57136;51.986;4.468;2022-12-24T07:52:55;37.83;;;5.10;;
69527;SDS011;57136;51.986;4.468;2022-12-24T07:55:20;41.15;;;5.55;;
69527;SDS011;57136;51.986;4.468;2022-12-24T07:57:45;50.90;;;5.05;;
69527;SDS011;57136;51.986;4.468;2022-12-24T08:00:11;46.28;;;6.25;;
69527;SDS011;57136;51.986;4.468;2022-12-24T08:02:37;48.88;;;5.75;;
69527;SDS011;57136;51.986;4.468;2022-12-24T08:05:02;42.55;;;7.32;;
69527;SDS011;57136;51.986;4.468;2022-12-24T08:07:28;34.30;;;5.05;;
69527;SDS011;57136;51.986;4.468;2022-12-24T08:09:53;45.60;;;5.93;;
69527;SDS011;57136;51.986;4.468;2022-12-24T08:12:18;37.00;;;6.03;;
69527;SDS011;57136;51.986;4.468;2022-12-24T08:14:43;38.40;;;4.97;;
69527;SDS011;57136;51.986;4.468;2022-12-24T08:17:09;46.97;;;5.97;;
69527;SDS011;57136;51.986;4.468;2022-12-24T08:19:34;36.75;;;6.20;;
69527;SDS011;57136;51.986;4.468;2022-12-24T08:22:00;41.95;;;5.25;;
69527;SDS011;57136;51.986;4.468;2022-12-24T08:24:25;29.00;;;4.80;;
69527;SDS011;57136;51.986;4.468;2022-12-24T08:26:50;42.65;;;6.55;;
69527;SDS011;57136;51.986;4.468;2022-12-24T08:29:16;40.97;;;6.03;;
69527;SDS011;57136;51.986;4.468;2022-12-24T08:31:41;44.20;;;5.63;;
69527;SDS011;57136;51.986;4.468;2022-12-24T08:34:07;35.85;;;5.30;;
69527;SDS011;57136;51.986;4.468;2022-12-24T08:36:33;32.83;;;5.00;;
69527;SDS011;57136;51.986;4.468;2022-12-24T08:38:58;30.65;;;5.60;;
69527;SDS011;57136;51.986;4.468;2022-12-24T08:41:27;33.08;;;4.60;;
69527;SDS011;57136;51.986;4.468;2022-12-24T08:43:56;31.67;;;5.57;;
69527;SDS011;57136;51.986;4.468;2022-12-24T08:46:21;38.38;;;5.55;;
69527;SDS011;57136;51.986;4.468;2022-12-24T08:48:46;33.22;;;4.78;;
69527;SDS011;57136;51.986;4.468;2022-12-24T08:51:12;32.63;;;4.22;;
69527;SDS011;57136;51.986;4.468;2022-12-24T08:53:37;27.52;;;4.93;;
69527;SDS011;57136;51.986;4.468;2022-12-24T08:56:04;29.17;;;4.90;;
69527;SDS011;57136;51.986;4.468;2022-12-24T08:58:32;29.70;;;5.00;;
69527;SDS011;57136;51.986;4.468;2022-12-24T09:00:57;30.52;;;4.93;;
69527;SDS011;57136;51.986;4.468;2022-12-24T09:03:23;25.27;;;4.72;;
69527;SDS011;57136;51.986;4.468;2022-12-24T09:05:49;34.78;;;5.13;;
69527;SDS011;57136;51.986;4.468;2022-12-24T09:08:15;30.80;;;4.50;;
69527;SDS011;57136;51.986;4.468;2022-12-24T09:10:40;35.20;;;4.85;;
69527;SDS011;57136;51.986;4.468;2022-12-24T09:13:06;35.42;;;5.18;;
69527;SDS011;57136;51.986;4.468;2022-12-24T09:15:31;28.00;;;4.47;;
69527;SDS011;57136;51.986;4.468;2022-12-24T09:17:56;29.55;;;4.13;;
69527;SDS011;57136;51.986;4.468;2022-12-24T09:20:22;34.05;;;4.50;;
69527;SDS011;57136;51.986;4.468;2022-12-24T09:22:47;35.65;;;5.30;;
69527;SDS011;57136;51.986;4.468;2022-12-24T09:25:12;32.42;;;4.80;;
69527;SDS011;57136;51.986;4.468;2022-12-24T09:27:38;27.20;;;4.78;;
69527;SDS011;57136;51.986;4.468;2022-12-24T09:30:04;28.83;;;5.00;;
69527;SDS011;57136;51.986;4.468;2022-12-24T09:32:31;41.38;;;4.75;;
69527;SDS011;57136;51.986;4.468;2022-12-24T09:34:56;31.77;;;4.18;;
69527;SDS011;57136;51.986;4.468;2022-12-24T09:37:22;33.30;;;5.05;;
69527;SDS011;57136;51.986;4.468;2022-12-24T09:39:47;34.85;;;4.22;;
69527;SDS011;57136;51.986;4.468;2022-12-24T09:47:58;25.05;;;3.97;;
69527;SDS011;57136;51.986;4.468;2022-12-24T09:55:58;34.63;;;5.85;;
69527;SDS011;57136;51.986;4.468;2022-12-24T09:58:35;28.85;;;3.95;;
69527;SDS011;57136;51.986;4.468;2022-12-24T10:01:04;19.38;;;3.40;;
69527;SDS011;57136;51.986;4.468;2022-12-24T10:03:29;27.77;;;4.22;;
69527;SDS011;57136;51.986;4.468;2022-12-24T10:08:34;32.22;;;3.88;;
69527;SDS011;57136;51.986;4.468;2022-12-24T10:16:45;26.55;;;4.53;;
69527;SDS011;57136;51.986;4.468;2022-12-24T10:22:20;22.05;;;3.45;;
69527;SDS011;57136;51.986;4.468;2022-12-24T10:27:38;22.60;;;3.30;;
69527;SDS011;57136;51.986;4.468;2022-12-24T10:32:40;23.92;;;4.03;;
69527;SDS011;57136;51.986;4.468;2022-12-24T10:37:41;20.17;;;3.30;;
69527;SDS011;57136;51.986;4.468;2022-12-24T10:40:12;23.88;;;3.72;;
69527;SDS011;57136;51.986;4.468;2022-12-24T10:42:41;21.17;;;3.90;;
69527;SDS011;57136;51.986;4.468;2022-12-24T10:45:13;24.92;;;3.33;;
69527;SDS011;57136;51.986;4.468;2022-12-24T10:47:40;26.02;;;3.90;;
69527;SDS011;57136;51.986;4.468;2022-12-24T10:50:09;22.15;;;3.80;;
69527;SDS011;57136;51.986;4.468;2022-12-24T10:52:41;20.70;;;3.72;;
69527;SDS011;57136;51.986;4.468;2022-12-24T10:57:40;30.30;;;4.60;;
69527;SDS011;57136;51.986;4.468;2022-12-24T11:00:05;23.70;;;3.83;;
69527;SDS011;57136;51.986;4.468;2022-12-24T11:02:42;28.92;;;3.50;;
69527;SDS011;57136;51.986;4.468;2022-12-24T11:05:26;24.48;;;3.20;;
69527;SDS011;57136;51.986;4.468;2022-12-24T11:08:00;26.65;;;3.95;;
69527;SDS011;57136;51.986;4.468;2022-12-24T11:10:57;20.17;;;3.85;;
69527;SDS011;57136;51.986;4.468;2022-12-24T11:13:30;26.08;;;3.47;;
69527;SDS011;57136;51.986;4.468;2022-12-24T11:15:59;19.05;;;3.17;;
69527;SDS011;57136;51.986;4.468;2022-12-24T11:18:28;22.35;;;3.65;;
69527;SDS011;57136;51.986;4.468;2022-12-24T11:20:56;32.13;;;3.78;;
69527;SDS011;57136;51.986;4.468;2022-12-24T11:23:24;23.27;;;4.18;;
69527;SDS011;57136;51.986;4.468;2022-12-24T11:25:50;22.13;;;3.13;;
69527;SDS011;57136;51.986;4.468;2022-12-24T11:28:21;20.98;;;3.60;;
69527;SDS011;57136;51.986;4.468;2022-12-24T11:30:55;23.05;;;4.03;;
69527;SDS011;57136;51.986;4.468;2022-12-24T11:33:30;25.42;;;3.58;;
69527;SDS011;57136;51.986;4.468;2022-12-24T11:35:59;28.27;;;3.55;;
69527;SDS011;57136;51.986;4.468;2022-12-24T11:38:27;27.65;;;3.35;;
69527;SDS011;57136;51.986;4.468;2022-12-24T11:41:07;17.35;;;3.30;;
69527;SDS011;57136;51.986;4.468;2022-12-24T11:43:36;30.35;;;4.80;;
69527;SDS011;57136;51.986;4.468;2022-12-24T11:46:11;25.05;;;3.55;;
69527;SDS011;57136;51.986;4.468;2022-12-24T11:48:37;24.15;;;3.75;;
69527;SDS011;57136;51.986;4.468;2022-12-24T11:51:03;17.73;;;2.95;;
69527;SDS011;57136;51.986;4.468;2022-12-24T11:53:38;25.75;;;3.08;;
69527;SDS011;57136;51.986;4.468;2022-12-24T11:56:23;23.25;;;3.10;;
69527;SDS011;57136;51.986;4.468;2022-12-24T11:58:57;19.38;;;2.90;;
69527;SDS011;57136;51.986;4.468;2022-12-24T12:04:12;21.05;;;3.38;;
69527;SDS011;57136;51.986;4.468;2022-12-24T12:11:47;18.17;;;3.17;;
69527;SDS011;57136;51.986;4.468;2022-12-24T12:14:20;19.35;;;2.80;;
69527;SDS011;57136;51.986;4.468;2022-12-24T12:19:29;20.95;;;3.97;;
69527;SDS011;57136;51.986;4.468;2022-12-24T12:22:03;20.92;;;3.97;;
69527;SDS011;57136;51.986;4.468;2022-12-24T12:24:36;21.10;;;3.20;;
69527;SDS011;57136;51.986;4.468;2022-12-24T12:27:10;23.30;;;4.05;;
69527;SDS011;57136;51.986;4.468;2022-12-24T12:32:12;21.33;;;3.08;;
69527;SDS011;57136;51.986;4.468;2022-12-24T12:34:58;21.70;;;3.75;;
69527;SDS011;57136;51.986;4.468;2022-12-24T12:37:51;21.40;;;2.90;;
69527;SDS011;57136;51.986;4.468;2022-12-24T12:40:20;19.40;;;3.88;;
69527;SDS011;57136;51.986;4.468;2022-12-24T12:49:02;19.63;;;3.97;;
69527;SDS011;57136;51.986;4.468;2022-12-24T12:51:39;20.98;;;3.13;;
69527;SDS011;57136;51.986;4.468;2022-12-24T12:56:42;22.55;;;3.63;;
69527;SDS011;57136;51.986;4.468;2022-12-24T12:59:28;16.98;;;2.95;;
69527;SDS011;57136;51.986;4.468;2022-12-24T13:04:56;29.50;;;3.00;;
69527;SDS011;57136;51.986;4.468;2022-12-24T13:15:47;19.40;;;2.55;;
69527;SDS011;57136;51.986;4.468;2022-12-24T13:18:36;23.00;;;3.60;;
69527;SDS011;57136;51.986;4.468;2022-12-24T13:21:25;19.50;;;3.53;;
69527;SDS011;57136;51.986;4.468;2022-12-24T13:24:06;15.25;;;3.58;;
69527;SDS011;57136;51.986;4.468;2022-12-24T13:26:39;17.73;;;3.40;;
69527;SDS011;57136;51.986;4.468;2022-12-24T13:32:35;21.65;;;3.10;;
69527;SDS011;57136;51.986;4.468;2022-12-24T13:37:45;28.02;;;3.20;;
69527;SDS011;57136;51.986;4.468;2022-12-24T13:40:13;21.73;;;3.42;;
69527;SDS011;57136;51.986;4.468;2022-12-24T13:45:40;19.70;;;3.40;;
69527;SDS011;57136;51.986;4.468;2022-12-24T13:50:43;23.75;;;2.80;;
69527;SDS011;57136;51.986;4.468;2022-12-24T13:55:58;21.90;;;2.90;;
69527;SDS011;57136;51.986;4.468;2022-12-24T13:58:31;15.13;;;3.03;;
69527;SDS011;57136;51.986;4.468;2022-12-24T14:01:02;28.77;;;4.10;;
69527;SDS011;57136;51.986;4.468;2022-12-24T14:03:47;17.15;;;3.33;;
69527;SDS011;57136;51.986;4.468;2022-12-24T14:08:44;27.40;;;4.82;;
69527;SDS011;57136;51.986;4.468;2022-12-24T14:11:13;17.70;;;3.45;;
69527;SDS011;57136;51.986;4.468;2022-12-24T14:19:01;16.30;;;4.07;;
69527;SDS011;57136;51.986;4.468;2022-12-24T14:21:36;19.17;;;3.85;;
69527;SDS011;57136;51.986;4.468;2022-12-24T14:24:12;28.40;;;3.83;;
69527;SDS011;57136;51.986;4.468;2022-12-24T14:26:44;21.90;;;4.05;;
69527;SDS011;57136;51.986;4.468;2022-12-24T14:29:29;22.27;;;4.00;;
69527;SDS011;57136;51.986;4.468;2022-12-24T14:31:58;25.70;;;3.88;;
69527;SDS011;57136;51.986;4.468;2022-12-24T14:34:28;25.20;;;3.92;;
69527;SDS011;57136;51.986;4.468;2022-12-24T14:36:54;25.15;;;3.47;;
69527;SDS011;57136;51.986;4.468;2022-12-24T14:44:33;24.25;;;4.13;;
69527;SDS011;57136;51.986;4.468;2022-12-24T14:47:14;19.73;;;3.90;;
69527;SDS011;57136;51.986;4.468;2022-12-24T14:55:50;24.05;;;4.00;;
69527;SDS011;57136;51.986;4.468;2022-12-24T14:58:17;22.60;;;3.33;;
69527;SDS011;57136;51.986;4.468;2022-12-24T15:00:49;26.70;;;4.05;;
69527;SDS011;57136;51.986;4.468;2022-12-24T15:03:17;22.98;;;3.80;;
69527;SDS011;57136;51.986;4.468;2022-12-24T15:05:44;20.88;;;3.92;;
69527;SDS011;57136;51.986;4.468;2022-12-24T15:08:26;26.48;;;4.40;;
69527;SDS011;57136;51.986;4.468;2022-12-24T15:10:54;33.90;;;4.15;;
69527;SDS011;57136;51.986;4.468;2022-12-24T15:13:29;20.42;;;4.25;;
69527;SDS011;57136;51.986;4.468;2022-12-24T15:15:58;25.83;;;4.45;;
69527;SDS011;57136;51.986;4.468;2022-12-24T15:18:25;30.45;;;4.88;;
69527;SDS011;57136;51.986;4.468;2022-12-24T15:20:54;25.08;;;5.63;;
69527;SDS011;57136;51.986;4.468;2022-12-24T15:23:26;26.98;;;5.07;;
69527;SDS011;57136;51.986;4.468;2022-12-24T15:29:00;27.52;;;6.10;;
69527;SDS011;57136;51.986;4.468;2022-12-24T15:31:27;27.30;;;3.83;;
69527;SDS011;57136;51.986;4.468;2022-12-24T15:33:54;22.02;;;3.17;;
69527;SDS011;57136;51.986;4.468;2022-12-24T15:36:30;29.00;;;3.83;;
69527;SDS011;57136;51.986;4.468;2022-12-24T15:39:05;14.55;;;2.97;;
69527;SDS011;57136;51.986;4.468;2022-12-24T15:41:40;24.65;;;3.70;;
69527;SDS011;57136;51.986;4.468;2022-12-24T15:44:27;27.67;;;4.90;;
69527;SDS011;57136;51.986;4.468;2022-12-24T15:46:58;25.42;;;4.80;;
69527;SDS011;57136;51.986;4.468;2022-12-24T15:49:25;28.17;;;4.93;;
69527;SDS011;57136;51.986;4.468;2022-12-24T15:51:52;31.15;;;4.63;;
69527;SDS011;57136;51.986;4.468;2022-12-24T15:54:19;31.85;;;4.45;;
69527;SDS011;57136;51.986;4.468;2022-12-24T15:56:46;31.15;;;3.88;;
69527;SDS011;57136;51.986;4.468;2022-12-24T16:01:37;38.20;;;5.85;;
69527;SDS011;57136;51.986;4.468;2022-12-24T16:04:09;31.00;;;7.97;;
69527;SDS011;57136;51.986;4.468;2022-12-24T16:06:49;32.58;;;6.93;;
69527;SDS011;57136;51.986;4.468;2022-12-24T16:12:00;26.25;;;6.05;;
69527;SDS011;57136;51.986;4.468;2022-12-24T16:14:27;34.63;;;8.80;;
69527;SDS011;57136;51.986;4.468;2022-12-24T16:16:56;40.30;;;6.43;;
69527;SDS011;57136;51.986;4.468;2022-12-24T16:19:29;29.23;;;5.80;;
69527;SDS011;57136;51.986;4.468;2022-12-24T16:24:27;25.67;;;5.85;;
69527;SDS011;57136;51.986;4.468;2022-12-24T16:26:54;32.50;;;7.88;;
69527;SDS011;57136;51.986;4.468;2022-12-24T16:29:20;28.83;;;7.40;;
69527;SDS011;57136;51.986;4.468;2022-12-24T16:31:56;32.30;;;9.18;;
69527;SDS011;57136;51.986;4.468;2022-12-24T16:34:23;31.30;;;9.68;;
69527;SDS011;57136;51.986;4.468;2022-12-24T16:36:51;31.55;;;9.10;;
69527;SDS011;57136;51.986;4.468;2022-12-24T16:39:20;32.08;;;8.82;;
69527;SDS011;57136;51.986;4.468;2022-12-24T16:41:48;26.73;;;8.35;;
69527;SDS011;57136;51.986;4.468;2022-12-24T16:44:36;25.13;;;9.95;;
69527;SDS011;57136;51.986;4.468;2022-12-24T16:47:02;36.53;;;10.30;;
69527;SDS011;57136;51.986;4.468;2022-12-24T16:49:28;34.78;;;9.43;;